Airfield :
LOGIN :

Register | Disclaimer

   EN    FR    IT 

 










Legend :    VFR   Marginal VFR   IFR   Intensive IFR   Very Intensive IFR
Visi :
Ceiling :
>= 8 km
>= 3000ft
5 to 8 km
1000 to 3000 ft
1500m to 5 km
500 to 1000 ft
800 to 1500m
200 to 500 ft
< 800m
< 200 ft
Symbols :   Thunderstorms  Fog  Heavy snow  Heavy precipitations  Wind > 20 kt
SIGMETs :     Misc.  Thunderstorms  Icing  Turbulence  Mountain Waves  Volcanic Ashes







- Airport Elevation : 20 ft
- IATA code : LSI
- Download approach charts


EGPB - Sumburgh

CURRENT METAR :
  • 160420Z AUTO 05011KT 9000 -RA FEW009/// OVC025/// 06/05 Q1006

EXPIRED METARs :
  • 160350Z AUTO 04012KT 7000 -RA BKN007/// OVC018/// 06/05 Q1006
  • 160320Z AUTO 04010KT 8000 -RA BKN006/// OVC020/// 06/06 Q1006
  • 160250Z AUTO 04012KT 9999 -RA FEW006/// OVC017/// 06/06 Q1005
  • 160220Z AUTO 04012KT 7000 -RA BKN005/// OVC018/// 07/06 Q1005
  • 160150Z AUTO 02005KT 8000 -RA OVC006/// 07/06 Q1006

TAF TAF EGPB
Valid from the 16 at 03:00 until the 16 at 12:00 UTC


160203Z 1603/1612 02015KT 9999 SCT006 BKN015
TEMPO 1603/1606 4000 RA BKN006
PROB30
TEMPO 1603/1605 2000 +RA BKN004
BECMG 1606/1609 02005KT
TEMPO 1606/1612 BKN010
No reported NOTAMs for that airfield.
1 SIGMET reported for the Scottish FIR (EGPX) :
 
Severe mountain waves
EGPX SIGMET 01 VALID 160300/160600 EGRR
EGPX SCOTTISH FIR SEV MTW FCST WI N5744 W00345 - N5807 W00106 - N5622 E00005 - N5500 E00008 - N5500 W00435 - N5744 W00345 FL030/200 STNR WKN=



MET'MAP, your aeronautical weather chart ! - Copyright ORBIFLY December 2007 - Disclaimer

ORBIFLY MET'MAP TEAM :

Programming & Development : Alexandra Zaïnal
Concept & Development : Baudouin d'Aumeries
Co-Development & Prog : Marc-Olivier Méhu
Technical & hardware support : Manuel Goepfert

Contact : metmap@orbifly.com




SOURCES & CREDITS :

   NOAA